createdAt,value
2018-09-27T00:02:11.760Z,9.80
2018-09-27T00:04:40.605Z,9.80
2018-09-27T00:07:10.712Z,9.70
2018-09-27T00:09:40.507Z,9.70
2018-09-27T00:12:14.267Z,9.70
2018-09-27T00:14:46.174Z,9.70
2018-09-27T00:17:18.171Z,9.60
2018-09-27T00:19:50.240Z,9.60
2018-09-27T00:22:22.842Z,9.50
2018-09-27T00:24:55.928Z,9.50
2018-09-27T00:27:30.600Z,9.40
2018-09-27T00:30:02.721Z,9.40
2018-09-27T00:32:32.835Z,9.50
2018-09-27T00:35:07.469Z,9.50
2018-09-27T00:37:40.357Z,9.50
2018-09-27T00:40:10.300Z,9.40
2018-09-27T00:42:44.223Z,9.30
2018-09-27T00:45:16.613Z,9.20
2018-09-27T00:47:49.047Z,9.20
2018-09-27T00:50:20.965Z,9.20
2018-09-27T00:52:52.344Z,9.20
2018-09-27T00:55:23.850Z,9.20
2018-09-27T00:57:54.171Z,9.30
2018-09-27T01:00:25.794Z,9.30
2018-09-27T01:02:55.023Z,9.30
2018-09-27T01:05:28.318Z,9.20
2018-09-27T01:08:04.745Z,9.20
2018-09-27T01:10:35.880Z,9.30
2018-09-27T01:13:07.963Z,9.30
2018-09-27T01:15:41.483Z,9.40
2018-09-27T01:18:11.410Z,9.40
2018-09-27T01:20:41.085Z,9.30
2018-09-27T01:23:09.245Z,9.30
2018-09-27T01:25:40.564Z,9.30
2018-09-27T01:28:13.705Z,9.30
2018-09-27T01:30:46.268Z,9.30
2018-09-27T01:33:21.080Z,9.30
2018-09-27T01:35:54.266Z,9.30
2018-09-27T01:38:25.411Z,9.30
2018-09-27T01:40:56.900Z,9.20
2018-09-27T01:43:30.573Z,9.20
2018-09-27T01:46:02.280Z,9.10
2018-09-27T01:48:36.681Z,9.10
2018-09-27T01:51:06.074Z,9.10
2018-09-27T01:53:37.729Z,9.00
2018-09-27T01:56:09.500Z,9.00
2018-09-27T01:58:41.070Z,9.00
2018-09-27T02:01:12.139Z,9.10
2018-09-27T02:03:44.711Z,9.10
2018-09-27T02:06:15.976Z,9.10
2018-09-27T02:08:48.351Z,9.10
2018-09-27T02:11:19.741Z,9.10
2018-09-27T02:13:52.146Z,9.10
2018-09-27T02:16:23.067Z,9.10
2018-09-27T02:18:57.036Z,9.10
2018-09-27T02:21:33.061Z,9.10
2018-09-27T02:24:04.589Z,9.10
2018-09-27T02:26:35.895Z,9.10
2018-09-27T02:29:08.196Z,9.10
2018-09-27T02:31:39.210Z,9.10
2018-09-27T02:34:13.243Z,9.10
2018-09-27T02:36:45.594Z,9.10
2018-09-27T02:39:15.472Z,9.10
2018-09-27T02:41:52.167Z,9.10
2018-09-27T02:44:28.011Z,9.00
2018-09-27T02:46:59.800Z,8.90
2018-09-27T02:49:30.846Z,9.00
2018-09-27T02:52:02.174Z,8.90
2018-09-27T02:54:33.822Z,9.00
2018-09-27T02:57:04.194Z,9.00
2018-09-27T02:59:35.598Z,9.00
2018-09-27T03:02:10.044Z,9.00
2018-09-27T03:04:40.416Z,8.90
2018-09-27T03:07:14.048Z,8.90
2018-09-27T03:09:46.316Z,8.80
2018-09-27T03:12:15.111Z,8.80
2018-09-27T03:14:46.165Z,8.90
2018-09-27T03:17:16.105Z,8.80
2018-09-27T03:19:52.192Z,8.70
2018-09-27T03:22:27.076Z,8.70
2018-09-27T03:24:59.764Z,8.80
2018-09-27T03:27:33.177Z,8.80
2018-09-27T03:30:02.644Z,8.80
2018-09-27T03:32:34.310Z,8.80
2018-09-27T03:35:03.195Z,8.80
2018-09-27T03:37:31.318Z,8.80
2018-09-27T03:39:59.433Z,8.90
2018-09-27T03:42:27.501Z,8.90
2018-09-27T03:44:55.571Z,8.80
2018-09-27T03:47:23.655Z,8.80
2018-09-27T03:49:51.701Z,8.80
2018-09-27T03:52:19.780Z,8.80
2018-09-27T03:54:53.030Z,8.80
2018-09-27T03:57:21.175Z,8.80
2018-09-27T03:59:49.256Z,8.80
2018-09-27T04:02:17.383Z,8.80
2018-09-27T04:04:45.523Z,8.90
2018-09-27T04:07:13.641Z,8.90
2018-09-27T04:09:41.705Z,8.90
2018-09-27T04:12:09.796Z,8.90
2018-09-27T04:14:37.881Z,8.90
2018-09-27T04:17:05.976Z,8.80
2018-09-27T04:19:34.065Z,8.80
2018-09-27T04:22:02.157Z,8.80
2018-09-27T04:24:30.285Z,8.80
2018-09-27T04:26:58.403Z,8.80
2018-09-27T04:29:26.495Z,8.70
2018-09-27T04:31:54.641Z,8.70
2018-09-27T04:34:22.805Z,8.70
2018-09-27T04:36:50.892Z,8.70
2018-09-27T04:39:19.010Z,8.80
2018-09-27T04:41:47.033Z,8.80
2018-09-27T04:44:15.132Z,8.80
2018-09-27T04:46:43.292Z,8.80
2018-09-27T04:49:11.326Z,8.80
2018-09-27T04:51:39.445Z,8.80
2018-09-27T04:54:08.338Z,8.80
2018-09-27T04:56:36.387Z,8.80
2018-09-27T04:59:04.636Z,8.70
2018-09-27T05:01:32.760Z,8.70
2018-09-27T05:04:00.822Z,8.60
2018-09-27T05:06:29.014Z,8.60
2018-09-27T05:08:57.342Z,8.60
2018-09-27T05:11:25.463Z,8.70
2018-09-27T05:13:53.575Z,8.70
2018-09-27T05:16:21.679Z,8.70
2018-09-27T05:18:49.888Z,8.70
2018-09-27T05:21:18.052Z,8.70
2018-09-27T05:23:46.202Z,8.70
2018-09-27T05:26:14.364Z,8.70
2018-09-27T05:28:42.483Z,8.70
2018-09-27T05:31:10.651Z,8.80
2018-09-27T05:33:38.788Z,8.80
2018-09-27T05:36:06.918Z,8.80
2018-09-27T05:38:35.140Z,8.80
2018-09-27T05:41:03.295Z,8.90
2018-09-27T05:43:31.559Z,8.90
2018-09-27T05:45:59.713Z,8.80
2018-09-27T05:48:27.856Z,8.90
2018-09-27T05:50:55.956Z,8.90
2018-09-27T05:53:24.255Z,8.90
2018-09-27T05:55:52.419Z,8.90
2018-09-27T05:58:20.505Z,8.90
2018-09-27T06:00:48.609Z,8.90
2018-09-27T06:03:16.785Z,8.90
2018-09-27T06:05:44.987Z,8.90
2018-09-27T06:08:13.080Z,8.90
2018-09-27T06:10:41.232Z,8.90
2018-09-27T06:13:09.457Z,8.90
2018-09-27T06:15:37.731Z,8.90
2018-09-27T06:18:05.968Z,9.00
2018-09-27T06:20:34.184Z,9.00
2018-09-27T06:23:02.541Z,9.10
2018-09-27T06:25:30.706Z,9.10
2018-09-27T06:27:58.779Z,9.10
2018-09-27T06:30:26.896Z,9.20
2018-09-27T06:32:55.012Z,9.30
2018-09-27T06:35:23.174Z,9.30
2018-09-27T06:37:52.024Z,9.30
2018-09-27T06:40:20.187Z,9.40
2018-09-27T06:42:48.396Z,9.50
2018-09-27T06:45:16.527Z,9.50
2018-09-27T06:47:44.671Z,9.60
2018-09-27T06:50:12.758Z,9.60
2018-09-27T06:52:40.843Z,9.60
2018-09-27T06:55:09.104Z,9.80
2018-09-27T06:57:37.052Z,9.80
2018-09-27T07:00:05.413Z,9.90
2018-09-27T07:02:33.608Z,10.00
2018-09-27T07:05:01.719Z,10.10
2018-09-27T07:07:29.785Z,10.20
2018-09-27T07:09:57.891Z,10.30
2018-09-27T07:12:26.096Z,10.40
2018-09-27T07:14:54.270Z,10.50
2018-09-27T07:17:22.412Z,10.60
2018-09-27T07:19:50.623Z,10.70
2018-09-27T07:22:18.708Z,10.80
2018-09-27T07:24:46.785Z,10.90
2018-09-27T07:27:14.950Z,11.00
2018-09-27T07:29:43.358Z,11.20
2018-09-27T07:32:11.506Z,11.50
2018-09-27T07:34:39.953Z,11.70
2018-09-27T07:37:08.261Z,11.80
2018-09-27T07:39:36.400Z,11.90
2018-09-27T07:42:04.559Z,12.00
2018-09-27T07:44:33.037Z,12.00
2018-09-27T07:47:01.088Z,12.00
2018-09-27T07:49:29.147Z,12.00
2018-09-27T07:51:57.258Z,12.10
2018-09-27T07:54:25.484Z,12.20
2018-09-27T07:56:53.578Z,12.20
2018-09-27T07:59:21.615Z,12.30
2018-09-27T08:01:49.703Z,12.30
2018-09-27T08:04:17.898Z,12.40
2018-09-27T08:06:45.957Z,12.40
2018-09-27T08:09:14.118Z,12.50
2018-09-27T08:11:42.313Z,12.60
2018-09-27T08:14:10.255Z,12.60
2018-09-27T08:16:38.471Z,12.70
2018-09-27T08:19:06.543Z,12.70
2018-09-27T08:21:34.683Z,12.80
2018-09-27T08:24:02.799Z,12.90
2018-09-27T08:26:36.710Z,13.10
2018-09-27T08:29:04.972Z,13.10
2018-09-27T08:31:33.149Z,13.30
2018-09-27T08:34:01.333Z,13.40
2018-09-27T08:36:29.458Z,13.50
2018-09-27T08:38:57.694Z,13.60
2018-09-27T08:41:25.825Z,13.70
2018-09-27T08:43:54.075Z,13.80
2018-09-27T08:46:22.178Z,14.00
2018-09-27T08:48:50.349Z,14.10
2018-09-27T08:51:18.535Z,14.20
2018-09-27T08:53:46.697Z,14.40
2018-09-27T08:56:14.942Z,14.40
2018-09-27T08:58:42.996Z,14.50
2018-09-27T09:01:11.131Z,14.60
2018-09-27T09:03:39.395Z,14.70
2018-09-27T09:06:07.538Z,14.80
2018-09-27T09:08:35.719Z,14.90
2018-09-27T09:11:03.959Z,15.00
2018-09-27T09:13:32.102Z,15.00
2018-09-27T09:16:00.316Z,15.10
2018-09-27T09:18:28.473Z,15.30
2018-09-27T09:20:56.730Z,15.30
2018-09-27T09:23:24.932Z,15.40
2018-09-27T09:25:53.180Z,15.50
2018-09-27T09:28:21.341Z,15.60
2018-09-27T09:30:49.681Z,15.70
2018-09-27T09:33:17.811Z,15.80
2018-09-27T09:35:46.029Z,15.90
2018-09-27T09:38:14.120Z,16.10
2018-09-27T09:40:42.300Z,16.20
2018-09-27T09:43:10.411Z,16.30
2018-09-27T09:45:38.628Z,16.30
2018-09-27T09:48:06.755Z,16.50
2018-09-27T09:50:35.077Z,16.60
2018-09-27T09:53:03.352Z,16.60
2018-09-27T09:55:31.548Z,16.80
2018-09-27T09:57:59.671Z,16.90
2018-09-27T10:00:27.800Z,17.00
2018-09-27T10:02:56.016Z,17.10
2018-09-27T10:05:24.166Z,17.20
2018-09-27T10:07:52.443Z,17.30
2018-09-27T10:10:20.674Z,17.40
2018-09-27T10:12:48.832Z,17.40
2018-09-27T10:15:17.086Z,17.50
2018-09-27T10:17:45.243Z,17.70
2018-09-27T10:20:13.402Z,17.80
2018-09-27T10:22:41.678Z,17.90
2018-09-27T10:25:09.875Z,18.00
2018-09-27T10:27:38.112Z,18.10
2018-09-27T10:30:06.328Z,18.20
2018-09-27T10:32:34.511Z,18.30
2018-09-27T10:35:02.824Z,18.40
2018-09-27T10:37:30.939Z,18.50
2018-09-27T10:39:59.126Z,18.60
2018-09-27T10:42:27.316Z,18.60
2018-09-27T10:44:56.408Z,18.70
2018-09-27T10:47:24.574Z,18.80
2018-09-27T10:49:52.777Z,18.90
2018-09-27T10:52:21.036Z,18.90
2018-09-27T10:54:49.296Z,19.00
2018-09-27T10:57:17.659Z,19.10
2018-09-27T10:59:45.835Z,19.10
2018-09-27T11:02:14.703Z,19.20
2018-09-27T11:04:42.988Z,19.20
2018-09-27T11:07:11.232Z,19.30
2018-09-27T11:09:39.411Z,19.40
2018-09-27T11:12:07.555Z,19.40
2018-09-27T11:14:35.724Z,19.50
2018-09-27T11:17:03.897Z,19.60
2018-09-27T11:19:32.788Z,19.60
2018-09-27T11:22:01.015Z,19.80
2018-09-27T11:24:29.306Z,19.90
2018-09-27T11:26:57.481Z,20.00
2018-09-27T11:29:31.221Z,20.00
2018-09-27T11:32:05.090Z,20.00
2018-09-27T11:34:33.332Z,20.10
2018-09-27T11:37:01.520Z,20.10
2018-09-27T11:39:29.742Z,20.00
2018-09-27T11:41:57.934Z,20.00
2018-09-27T11:44:26.270Z,20.10
2018-09-27T11:46:54.531Z,20.30
2018-09-27T11:49:22.732Z,20.30
2018-09-27T11:51:50.952Z,20.50
2018-09-27T11:54:19.147Z,20.50
2018-09-27T11:56:47.427Z,20.60
2018-09-27T11:59:15.577Z,20.70
2018-09-27T12:01:44.005Z,20.80
2018-09-27T12:04:12.211Z,20.90
2018-09-27T12:06:40.522Z,21.00
2018-09-27T12:09:10.864Z,21.10
2018-09-27T12:11:39.021Z,21.10
2018-09-27T12:14:08.145Z,21.10
2018-09-27T12:16:36.511Z,21.20
2018-09-27T12:19:04.727Z,21.20
2018-09-27T12:21:32.891Z,21.20
2018-09-27T12:24:01.137Z,21.20
2018-09-27T12:26:29.573Z,21.20
2018-09-27T12:28:57.773Z,21.30
2018-09-27T12:31:25.979Z,21.30
2018-09-27T12:33:54.284Z,21.30
2018-09-27T12:36:22.551Z,21.30
2018-09-27T12:38:50.800Z,21.30
2018-09-27T12:41:19.519Z,21.30
2018-09-27T12:43:47.704Z,21.20
2018-09-27T12:46:15.944Z,21.20
2018-09-27T12:48:44.190Z,21.20
2018-09-27T12:51:12.532Z,21.30
2018-09-27T12:53:40.720Z,21.30
2018-09-27T12:56:08.981Z,21.40
2018-09-27T12:58:37.120Z,21.40
2018-09-27T13:01:05.391Z,21.40
2018-09-27T13:03:33.553Z,21.50
2018-09-27T13:06:01.720Z,21.50
2018-09-27T13:08:30.216Z,21.40
2018-09-27T13:10:58.291Z,21.40
2018-09-27T13:13:26.661Z,21.50
2018-09-27T13:15:54.820Z,21.60
2018-09-27T13:18:23.260Z,21.60
2018-09-27T13:20:51.420Z,21.60
2018-09-27T13:23:19.596Z,21.70
2018-09-27T13:25:47.890Z,21.80
2018-09-27T13:28:16.167Z,21.80
2018-09-27T13:30:44.388Z,21.80
2018-09-27T13:33:12.584Z,21.80
2018-09-27T13:35:40.817Z,21.80
2018-09-27T13:38:09.073Z,21.70
2018-09-27T13:40:37.313Z,21.70
2018-09-27T13:43:05.637Z,21.80
2018-09-27T13:45:34.585Z,21.80
2018-09-27T13:48:02.796Z,22.10
2018-09-27T13:50:31.020Z,22.20
2018-09-27T13:52:59.195Z,22.30
2018-09-27T13:55:27.440Z,22.20
2018-09-27T13:57:55.616Z,22.30
2018-09-27T14:00:23.821Z,22.30
2018-09-27T14:02:52.081Z,22.40
2018-09-27T14:05:20.891Z,22.50
2018-09-27T14:07:49.114Z,22.50
2018-09-27T14:10:17.333Z,22.50
2018-09-27T14:12:45.621Z,22.70
2018-09-27T14:15:13.801Z,22.70
2018-09-27T14:17:42.046Z,22.70
2018-09-27T14:20:10.287Z,22.70
2018-09-27T14:22:38.824Z,22.70
2018-09-27T14:25:07.285Z,22.60
2018-09-27T14:27:35.845Z,22.50
2018-09-27T14:30:04.367Z,22.60
2018-09-27T14:32:32.666Z,22.70
2018-09-27T14:35:00.994Z,22.80
2018-09-27T14:37:29.466Z,22.90
2018-09-27T14:39:57.883Z,23.00
2018-09-27T14:42:26.274Z,23.00
2018-09-27T14:44:54.675Z,23.10
2018-09-27T14:47:23.014Z,23.20
2018-09-27T14:49:51.433Z,23.20
2018-09-27T14:52:19.752Z,23.20
2018-09-27T14:54:48.108Z,23.90
2018-09-27T14:57:16.550Z,24.70
2018-09-27T14:59:45.027Z,25.40
2018-09-27T15:02:13.188Z,26.30
2018-09-27T15:04:41.410Z,27.20
2018-09-27T15:07:09.596Z,27.70
2018-09-27T15:09:37.917Z,27.90
2018-09-27T15:12:06.125Z,27.60
2018-09-27T15:14:34.388Z,27.00
2018-09-27T15:17:02.669Z,26.60
2018-09-27T15:19:30.885Z,26.20
2018-09-27T15:21:59.168Z,25.80
2018-09-27T15:24:27.436Z,25.30
2018-09-27T15:26:55.654Z,24.80
2018-09-27T15:29:24.037Z,24.40
2018-09-27T15:31:52.195Z,24.10
2018-09-27T15:34:20.361Z,23.80
2018-09-27T15:36:48.575Z,23.50
2018-09-27T15:39:16.802Z,23.30
2018-09-27T15:41:45.049Z,23.30
2018-09-27T15:44:13.232Z,23.10
2018-09-27T15:46:42.057Z,23.00
2018-09-27T15:49:10.246Z,22.80
2018-09-27T15:51:38.548Z,22.70
2018-09-27T15:54:06.789Z,22.60
2018-09-27T15:56:44.995Z,22.50
2018-09-27T15:59:13.193Z,22.40
2018-09-27T16:01:41.427Z,22.30
2018-09-27T16:04:09.700Z,22.30
2018-09-27T16:06:38.003Z,22.30
2018-09-27T16:09:08.374Z,22.10
2018-09-27T16:11:36.780Z,22.00
2018-09-27T16:14:04.963Z,21.90
2018-09-27T16:16:33.214Z,21.80
2018-09-27T16:19:01.478Z,21.80
2018-09-27T16:21:29.684Z,21.70
2018-09-27T16:23:57.928Z,21.60
2018-09-27T16:26:26.111Z,21.50
2018-09-27T16:28:56.111Z,21.40
2018-09-27T16:31:24.345Z,21.10
2018-09-27T16:33:52.584Z,20.90
2018-09-27T16:36:20.872Z,20.90
2018-09-27T16:38:49.125Z,20.70
2018-09-27T16:41:17.399Z,20.70
2018-09-27T16:43:45.916Z,20.60
2018-09-27T16:46:14.244Z,20.50
2018-09-27T16:48:42.543Z,20.40
2018-09-27T16:51:10.744Z,20.20
2018-09-27T16:53:39.028Z,20.10
2018-09-27T16:56:07.217Z,19.90
2018-09-27T16:58:35.460Z,19.80
2018-09-27T17:01:03.688Z,19.60
2018-09-27T17:03:31.949Z,19.50
2018-09-27T17:06:00.273Z,19.50
2018-09-27T17:08:28.560Z,19.40
2018-09-27T17:10:56.839Z,19.20
2018-09-27T17:13:25.223Z,19.10
2018-09-27T17:15:53.412Z,19.00
2018-09-27T17:18:21.616Z,18.90
2018-09-27T17:20:49.918Z,18.90
2018-09-27T17:23:18.123Z,18.70
2018-09-27T17:25:46.387Z,18.60
2018-09-27T17:28:14.685Z,18.60
2018-09-27T17:30:43.021Z,18.60
2018-09-27T17:33:11.253Z,18.50
2018-09-27T17:35:39.535Z,18.40
2018-09-27T17:38:07.793Z,18.40
2018-09-27T17:40:36.024Z,18.30
2018-09-27T17:43:04.334Z,18.30
2018-09-27T17:45:32.659Z,18.20
2018-09-27T17:48:01.049Z,18.00
2018-09-27T17:50:29.221Z,17.90
2018-09-27T17:52:57.531Z,17.80
2018-09-27T17:55:25.814Z,17.70
2018-09-27T17:57:54.084Z,17.60
2018-09-27T18:00:22.446Z,17.50
2018-09-27T18:02:50.776Z,17.40
2018-09-27T18:05:19.450Z,17.30
2018-09-27T18:07:49.269Z,17.10
2018-09-27T18:10:17.561Z,17.00
2018-09-27T18:12:45.788Z,16.90
2018-09-27T18:15:13.989Z,16.80
2018-09-27T18:17:42.245Z,16.70
2018-09-27T18:20:10.425Z,16.70
2018-09-27T18:22:38.769Z,16.60
2018-09-27T18:25:06.945Z,16.60
2018-09-27T18:27:35.300Z,16.50
2018-09-27T18:30:03.644Z,16.40
2018-09-27T18:32:33.118Z,16.30
2018-09-27T18:35:01.384Z,16.30
2018-09-27T18:37:29.846Z,16.30
2018-09-27T18:39:58.056Z,16.30
2018-09-27T18:42:26.427Z,16.20
2018-09-27T18:44:54.696Z,16.20
2018-09-27T18:47:23.201Z,16.10
2018-09-27T18:49:51.484Z,16.00
2018-09-27T18:52:19.844Z,16.00
2018-09-27T18:54:48.091Z,15.90
2018-09-27T18:57:16.376Z,15.90
2018-09-27T18:59:44.696Z,15.80
2018-09-27T19:02:12.959Z,15.70
2018-09-27T19:04:42.645Z,15.70
2018-09-27T19:07:10.916Z,15.60
2018-09-27T19:09:39.237Z,15.50
2018-09-27T19:12:07.775Z,15.40
2018-09-27T19:14:36.004Z,15.40
2018-09-27T19:17:04.467Z,15.40
2018-09-27T19:19:32.777Z,15.30
2018-09-27T19:22:01.114Z,15.30
2018-09-27T19:24:29.372Z,15.30
2018-09-27T19:26:57.593Z,15.20
2018-09-27T19:29:25.923Z,15.10
2018-09-27T19:31:54.335Z,15.10
2018-09-27T19:34:22.641Z,15.10
2018-09-27T19:36:51.005Z,15.10
2018-09-27T19:39:20.445Z,15.10
2018-09-27T19:41:48.772Z,15.00
2018-09-27T19:44:17.089Z,15.00
2018-09-27T19:46:45.513Z,14.90
2018-09-27T19:49:13.932Z,14.80
2018-09-27T19:51:42.207Z,14.80
2018-09-27T19:54:10.558Z,14.70
2018-09-27T19:56:38.891Z,14.60
2018-09-27T19:59:07.161Z,14.60
2018-09-27T20:01:35.503Z,14.60
2018-09-27T20:04:03.881Z,14.50
2018-09-27T20:06:32.424Z,14.50
2018-09-27T20:09:00.620Z,14.50
2018-09-27T20:11:29.016Z,14.40
2018-09-27T20:13:58.020Z,14.40
2018-09-27T20:16:26.304Z,14.40
2018-09-27T20:18:54.642Z,14.30
2018-09-27T20:21:22.913Z,14.30
2018-09-27T20:23:51.287Z,14.30
2018-09-27T20:26:19.503Z,14.10
2018-09-27T20:28:47.792Z,14.10
2018-09-27T20:31:16.081Z,14.00
2018-09-27T20:33:44.397Z,13.90
2018-09-27T20:36:12.622Z,13.90
2018-09-27T20:38:40.949Z,13.80
2018-09-27T20:41:09.159Z,13.80
2018-09-27T20:43:37.525Z,13.80
2018-09-27T20:46:05.966Z,13.80
2018-09-27T20:48:34.223Z,13.70
2018-09-27T20:51:02.683Z,13.70
2018-09-27T20:53:33.978Z,13.70
2018-09-27T20:56:02.320Z,13.70
2018-09-27T20:58:30.743Z,13.60
2018-09-27T21:00:59.099Z,13.60
2018-09-27T21:03:27.331Z,13.60
2018-09-27T21:05:55.797Z,13.50
2018-09-27T21:08:27.116Z,13.60
2018-09-27T21:10:55.309Z,13.60
2018-09-27T21:13:23.503Z,13.60
2018-09-27T21:15:51.859Z,13.50
2018-09-27T21:18:20.122Z,13.50
2018-09-27T21:20:48.960Z,13.50
2018-09-27T21:23:17.304Z,13.50
2018-09-27T21:25:45.760Z,13.50
2018-09-27T21:28:13.940Z,13.50
2018-09-27T21:30:42.253Z,13.50
2018-09-27T21:33:10.448Z,13.50
2018-09-27T21:35:38.857Z,13.40
2018-09-27T21:38:07.064Z,13.50
2018-09-27T21:40:35.398Z,13.40
2018-09-27T21:43:03.783Z,13.40
2018-09-27T21:45:31.925Z,13.40
2018-09-27T21:48:00.150Z,13.40
2018-09-27T21:50:28.517Z,13.30
2018-09-27T21:52:57.550Z,13.30
2018-09-27T21:55:25.714Z,13.30
2018-09-27T21:57:53.836Z,13.20
2018-09-27T22:00:22.143Z,13.10
2018-09-27T22:02:50.394Z,13.10
2018-09-27T22:05:18.556Z,13.10
2018-09-27T22:07:46.836Z,13.10
2018-09-27T22:10:15.019Z,13.00
2018-09-27T22:12:43.824Z,13.00
2018-09-27T22:15:12.040Z,13.00
2018-09-27T22:17:40.227Z,13.00
2018-09-27T22:20:08.438Z,13.00
2018-09-27T22:22:36.649Z,13.00
2018-09-27T22:25:04.951Z,13.00
2018-09-27T22:27:33.900Z,12.90
2018-09-27T22:30:02.109Z,12.80
2018-09-27T22:32:30.423Z,12.70
2018-09-27T22:34:58.669Z,12.80
2018-09-27T22:37:27.011Z,12.80
2018-09-27T22:39:55.343Z,12.80
2018-09-27T22:42:24.552Z,12.90
2018-09-27T22:44:52.753Z,12.90
2018-09-27T22:47:21.650Z,12.90
2018-09-27T22:49:49.908Z,12.90
2018-09-27T22:52:18.176Z,12.90
2018-09-27T22:54:46.336Z,12.90
2018-09-27T22:57:14.552Z,12.90
2018-09-27T22:59:43.568Z,12.80
2018-09-27T23:02:11.817Z,12.70
2018-09-27T23:04:40.863Z,12.80
2018-09-27T23:07:09.111Z,12.70
2018-09-27T23:09:37.405Z,12.70
2018-09-27T23:12:05.637Z,12.80
2018-09-27T23:14:33.851Z,12.70
2018-09-27T23:17:02.008Z,12.70
2018-09-27T23:19:30.199Z,12.60
2018-09-27T23:21:58.351Z,12.50
2018-09-27T23:24:26.635Z,12.50
2018-09-27T23:26:54.840Z,12.50
2018-09-27T23:29:22.988Z,12.50
2018-09-27T23:31:51.309Z,12.50
2018-09-27T23:34:19.556Z,12.60
2018-09-27T23:36:47.773Z,12.60
2018-09-27T23:39:15.860Z,12.60
2018-09-27T23:41:43.961Z,12.70
2018-09-27T23:44:12.191Z,12.70
2018-09-27T23:46:40.462Z,12.70
2018-09-27T23:49:08.811Z,12.70
2018-09-27T23:51:36.985Z,12.70
2018-09-27T23:54:05.367Z,12.70
2018-09-27T23:56:33.575Z,12.70
2018-09-27T23:59:01.797Z,12.70
